Time;durP1;ratioP1;P1;durP2;ratioP2;P2;SDS_P1;SDS_P2;PMS_P1;PMS_P2;Temp;Humidity;BMP_temperature;BMP_pressure;BME280_temperature;BME280_humidity;BME280_pressure;Samples;Min_cycle;Max_cycle;Signal;HPM_P1;HPM_P2
2021/01/01 00:00:33;;;;;;;17.57;7.80;;;;;;;-0.60;100.00;95067.09;4998257;28;20652;-72
2021/01/01 00:03:00;;;;;;;14.80;7.70;;;;;;;-0.50;100.00;95073.06;4997318;28;21223;-73
2021/01/01 00:05:26;;;;;;;14.87;7.37;;;;;;;-0.38;100.00;95068.50;4998680;28;20210;-73
2021/01/01 00:07:53;;;;;;;16.83;7.23;;;;;;;-0.35;100.00;95069.06;4998844;28;20224;-73
2021/01/01 00:10:19;;;;;;;14.50;7.40;;;;;;;-0.56;100.00;95065.00;5000403;28;20202;-73
2021/01/01 00:12:45;;;;;;;17.17;8.23;;;;;;;-0.64;100.00;95072.66;5000116;28;20223;-73
2021/01/01 00:15:12;;;;;;;18.17;8.17;;;;;;;-0.60;100.00;95063.66;4998721;28;20254;-73
2021/01/01 00:17:39;;;;;;;21.53;8.13;;;;;;;-0.66;100.00;95058.22;4996814;28;20210;-73
2021/01/01 00:20:07;;;;;;;18.50;9.10;;;;;;;-0.66;100.00;95056.47;4999528;28;20261;-73
2021/01/01 00:22:33;;;;;;;19.77;9.13;;;;;;;-0.68;100.00;95066.13;4998592;28;20601;-73
2021/01/01 00:25:00;;;;;;;17.17;9.13;;;;;;;-0.59;100.00;95065.31;4998138;28;20225;-73
2021/01/01 00:27:28;;;;;;;17.80;9.23;;;;;;;-0.40;100.00;95075.63;4998863;28;20208;-73
2021/01/01 00:29:54;;;;;;;18.97;9.10;;;;;;;-0.31;100.00;95073.00;4998410;28;20222;-73
2021/01/01 00:32:20;;;;;;;17.07;9.03;;;;;;;-0.18;100.00;95070.91;4998204;28;20748;-73
2021/01/01 00:34:46;;;;;;;22.33;10.50;;;;;;;-0.06;100.00;95076.72;4999133;28;20194;-73
2021/01/01 00:37:12;;;;;;;18.87;8.63;;;;;;;-0.19;100.00;95074.47;4998042;28;20622;-73
2021/01/01 00:39:38;;;;;;;19.57;8.93;;;;;;;-0.10;100.00;95086.56;4998986;28;20197;-73
2021/01/01 00:42:05;;;;;;;18.30;9.27;;;;;;;-0.14;100.00;95085.22;4999078;28;20263;-73
2021/01/01 00:44:31;;;;;;;22.03;10.37;;;;;;;-0.15;100.00;95090.50;4998277;28;20239;-74
2021/01/01 00:46:57;;;;;;;25.17;10.70;;;;;;;-0.25;100.00;95082.78;4997361;28;20327;-74
2021/01/01 00:49:23;;;;;;;22.93;10.10;;;;;;;-0.18;100.00;95091.63;4996941;28;20206;-73
2021/01/01 00:51:49;;;;;;;21.07;9.60;;;;;;;-0.20;100.00;95087.56;4996933;28;20205;-74
2021/01/01 00:54:15;;;;;;;22.30;9.63;;;;;;;-0.11;100.00;95094.47;4996274;28;20210;-74
2021/01/01 00:56:41;;;;;;;19.97;9.00;;;;;;;-0.12;100.00;95090.25;4996985;28;20860;-74
2021/01/01 00:59:08;;;;;;;22.53;9.23;;;;;;;-0.22;100.00;95092.06;4996579;28;20202;-74
2021/01/01 01:01:34;;;;;;;20.10;10.20;;;;;;;-0.32;100.00;95093.84;4997356;28;20214;-73
2021/01/01 01:04:00;;;;;;;23.73;9.83;;;;;;;-0.34;100.00;95101.75;4998317;28;20238;-73
2021/01/01 01:06:27;;;;;;;16.63;9.00;;;;;;;-0.28;100.00;95106.38;4997548;28;20208;-73
2021/01/01 01:08:53;;;;;;;17.50;8.87;;;;;;;-0.35;100.00;95110.47;4997881;28;20212;-74
2021/01/01 01:11:23;;;;;;;18.33;8.70;;;;;;;-0.24;100.00;95099.13;4998591;28;20206;-74
2021/01/01 01:13:49;;;;;;;17.33;9.03;;;;;;;-0.25;100.00;95100.91;4998148;28;20305;-73
2021/01/01 01:16:21;;;;;;;23.53;9.53;;;;;;;-0.39;100.00;95110.91;4997161;28;20670;-74
2021/01/01 01:18:47;;;;;;;111.40;35.00;;;;;;;-0.53;100.00;95112.13;4997275;28;21032;-73
2021/01/01 01:21:12;;;;;;;58.23;21.10;;;;;;;-0.54;100.00;95104.50;4998406;28;20198;-74
2021/01/01 01:23:38;;;;;;;63.03;22.07;;;;;;;-0.45;100.00;95098.50;4998264;28;20226;-73
2021/01/01 01:26:04;;;;;;;20.20;10.30;;;;;;;-0.57;100.00;95097.03;4996967;28;20204;-74
2021/01/01 01:28:30;;;;;;;23.10;10.70;;;;;;;-0.56;100.00;95096.88;4997608;28;20312;-74
2021/01/01 01:30:56;;;;;;;28.07;10.37;;;;;;;-0.72;100.00;95103.56;4997425;28;20202;-74
2021/01/01 01:33:23;;;;;;;31.67;15.33;;;;;;;-0.78;100.00;95104.09;4998199;28;20625;-73
2021/01/01 01:35:49;;;;;;;50.63;19.90;;;;;;;-0.61;100.00;95103.44;4999976;28;20208;-73
2021/01/01 01:38:15;;;;;;;24.87;11.87;;;;;;;-0.54;100.00;95104.50;5001681;28;20295;-73
2021/01/01 01:40:41;;;;;;;21.10;9.83;;;;;;;-0.46;100.00;95107.22;5002044;28;20293;-74
2021/01/01 01:43:07;;;;;;;26.47;11.57;;;;;;;-0.42;100.00;95108.56;5001324;28;20251;-73
2021/01/01 01:45:33;;;;;;;28.57;12.73;;;;;;;-0.37;100.00;95107.22;5000818;28;20206;-74
2021/01/01 01:47:59;;;;;;;24.87;12.17;;;;;;;-0.31;100.00;95106.63;5002062;28;20198;-73
2021/01/01 01:50:27;;;;;;;34.17;15.10;;;;;;;-0.38;100.00;95109.91;5001794;28;20220;-73
2021/01/01 01:52:54;;;;;;;27.87;13.07;;;;;;;-0.32;100.00;95109.38;5001490;28;20226;-73
2021/01/01 01:55:20;;;;;;;19.63;10.17;;;;;;;-0.30;100.00;95107.47;5000960;28;20728;-73
2021/01/01 01:57:46;;;;;;;19.40;9.63;;;;;;;-0.29;100.00;95107.31;5001450;28;20707;-73
2021/01/01 02:00:36;;;;;;;21.87;10.40;;;;;;;-0.35;100.00;95104.47;5001339;28;20222;-74
2021/01/01 02:03:02;;;;;;;19.47;9.33;;;;;;;-0.63;100.00;95103.56;5001259;28;20302;-73
2021/01/01 02:05:29;;;;;;;20.37;9.13;;;;;;;-0.66;100.00;95104.78;5000906;28;20674;-73
2021/01/01 02:07:55;;;;;;;27.03;9.63;;;;;;;-0.58;100.00;95109.13;5001156;28;20214;-74
2021/01/01 02:10:21;;;;;;;19.37;9.47;;;;;;;-0.54;100.00;95114.84;5000972;28;20206;-74
2021/01/01 02:12:48;;;;;;;23.83;10.23;;;;;;;-0.50;100.00;95111.88;5001151;28;20230;-74
2021/01/01 02:15:15;;;;;;;19.37;9.10;;;;;;;-0.45;100.00;95108.84;5000852;28;20562;-74
2021/01/01 02:17:41;;;;;;;94.53;29.13;;;;;;;-0.52;100.00;95118.94;5001287;28;20210;-73
2021/01/01 02:20:08;;;;;;;118.27;33.33;;;;;;;-0.55;100.00;95121.81;5001487;28;20208;-73
2021/01/01 02:22:36;;;;;;;80.13;26.13;;;;;;;-0.45;100.00;95117.41;5001276;28;20277;-74
2021/01/01 02:25:02;;;;;;;32.77;13.20;;;;;;;-0.35;100.00;95120.81;5000521;28;20526;-73
2021/01/01 02:27:28;;;;;;;31.33;11.17;;;;;;;-0.29;100.00;95134.97;5001053;28;20211;-74
2021/01/01 02:29:54;;;;;;;24.57;10.43;;;;;;;-0.24;100.00;95123.25;5001807;28;20292;-73
2021/01/01 02:32:20;;;;;;;21.60;8.97;;;;;;;-0.23;100.00;95119.72;5000485;28;20293;-73
2021/01/01 02:34:46;;;;;;;20.00;8.67;;;;;;;-0.38;100.00;95115.91;5001647;28;20203;-74
2021/01/01 02:37:12;;;;;;;18.40;8.70;;;;;;;-0.27;100.00;95112.34;5000085;28;20618;-73
2021/01/01 02:39:39;;;;;;;20.87;9.60;;;;;;;-0.36;100.00;95119.16;5000328;28;20844;-74
2021/01/01 02:42:05;;;;;;;23.87;9.67;;;;;;;-0.33;100.00;95123.25;5000651;28;20229;-73
2021/01/01 02:44:31;;;;;;;19.87;9.63;;;;;;;-0.24;100.00;95122.41;5001322;28;20235;-73
2021/01/01 02:47:00;;;;;;;18.57;8.63;;;;;;;-0.18;100.00;95129.63;4998245;28;21098;-74
2021/01/01 02:49:26;;;;;;;22.67;9.53;;;;;;;-0.11;100.00;95123.75;5000494;28;20207;-74
2021/01/01 02:51:52;;;;;;;23.67;10.00;;;;;;;-0.10;100.00;95129.75;5000902;28;20609;-74
2021/01/01 02:54:18;;;;;;;19.57;9.53;;;;;;;-0.10;100.00;95124.56;5000275;28;20222;-74
2021/01/01 02:56:44;;;;;;;22.97;10.70;;;;;;;-0.18;100.00;95129.63;4999825;28;20578;-74
2021/01/01 02:59:10;;;;;;;22.33;10.40;;;;;;;-0.14;100.00;95133.56;5000175;28;20587;-74
2021/01/01 03:01:36;;;;;;;23.30;11.17;;;;;;;-0.09;100.00;95134.78;5000630;28;20321;-74
2021/01/01 03:04:02;;;;;;;22.40;10.80;;;;;;;-0.02;100.00;95134.06;4999667;28;21252;-74
2021/01/01 03:06:28;;;;;;;18.80;9.67;;;;;;;0.02;100.00;95127.66;4999770;28;20221;-74
2021/01/01 03:08:54;;;;;;;22.20;9.53;;;;;;;0.06;100.00;95141.16;4999895;28;20935;-73
2021/01/01 03:11:20;;;;;;;23.27;11.10;;;;;;;0.17;100.00;95135.81;5000282;28;20220;-73
2021/01/01 03:13:47;;;;;;;21.57;10.67;;;;;;;0.28;100.00;95133.88;4999959;28;20214;-73
2021/01/01 03:16:13;;;;;;;26.80;12.23;;;;;;;0.36;100.00;95131.38;4999496;28;20198;-74
2021/01/01 03:18:39;;;;;;;24.40;12.00;;;;;;;0.41;100.00;95129.16;4999981;28;20215;-74
2021/01/01 03:21:05;;;;;;;24.60;12.13;;;;;;;0.38;100.00;95126.03;4998542;28;20203;-74
2021/01/01 03:23:31;;;;;;;27.30;12.17;;;;;;;0.42;100.00;95132.56;4999657;28;20775;-74
2021/01/01 03:25:57;;;;;;;27.33;12.60;;;;;;;0.50;100.00;95130.06;4999132;28;20206;-74
2021/01/01 03:28:23;;;;;;;27.70;12.97;;;;;;;0.59;100.00;95130.03;4999888;28;20682;-73
2021/01/01 03:30:50;;;;;;;29.70;12.77;;;;;;;0.61;100.00;95128.09;5000278;28;20209;-74
2021/01/01 03:33:16;;;;;;;29.47;13.80;;;;;;;0.66;100.00;95137.09;4999181;28;20225;-74
2021/01/01 03:35:41;;;;;;;30.30;14.13;;;;;;;0.61;100.00;95133.28;4999520;28;20654;-74
2021/01/01 03:38:07;;;;;;;31.67;13.70;;;;;;;0.63;100.00;95133.97;5000270;28;20205;-73
2021/01/01 03:40:33;;;;;;;28.87;13.43;;;;;;;0.63;100.00;95131.38;4999559;28;20216;-74
2021/01/01 03:43:00;;;;;;;32.87;13.67;;;;;;;0.65;100.00;95137.25;4999664;28;20277;-73
2021/01/01 03:45:28;;;;;;;26.53;13.40;;;;;;;0.53;100.00;95133.19;4999063;28;20230;-74
2021/01/01 03:47:55;;;;;;;33.27;13.77;;;;;;;0.54;100.00;95134.84;4999440;28;20210;-74
2021/01/01 03:50:21;;;;;;;28.70;14.50;;;;;;;0.58;100.00;95134.38;4999287;28;20209;-74
2021/01/01 03:52:47;;;;;;;33.20;14.27;;;;;;;0.66;100.00;95123.31;4999673;28;20223;-73
2021/01/01 03:55:13;;;;;;;31.90;14.83;;;;;;;0.71;100.00;95121.09;4998502;28;20620;-74
2021/01/01 03:57:40;;;;;;;33.30;15.20;;;;;;;0.77;100.00;95120.53;4999841;28;20636;-74
2021/01/01 04:00:07;;;;;;;28.53;14.23;;;;;;;0.86;100.00;95117.84;4999139;28;20291;-74
2021/01/01 04:02:33;;;;;;;33.07;14.60;;;;;;;0.95;100.00;95116.19;5000239;28;20222;-73
2021/01/01 04:04:59;;;;;;;31.77;14.23;;;;;;;1.02;100.00;95122.41;4998814;28;20275;-73
2021/01/01 04:07:25;;;;;;;30.30;13.77;;;;;;;1.07;100.00;95122.78;4998980;28;20711;-74
2021/01/01 04:09:51;;;;;;;28.53;13.07;;;;;;;1.10;100.00;95125.09;4999056;28;20209;-74
2021/01/01 04:12:19;;;;;;;29.40;14.13;;;;;;;1.13;100.00;95125.59;4999484;28;20229;-74
2021/01/01 04:14:45;;;;;;;31.53;14.70;;;;;;;1.18;100.00;95128.56;4998107;28;20673;-74
2021/01/01 04:17:10;;;;;;;28.53;14.23;;;;;;;1.20;100.00;95127.44;4998937;28;20222;-73
2021/01/01 04:19:37;;;;;;;28.43;13.93;;;;;;;1.24;100.00;95127.97;4999165;28;20264;-74
2021/01/01 04:22:03;;;;;;;31.23;13.53;;;;;;;1.24;100.00;95126.19;4998665;28;20206;-73
2021/01/01 04:24:29;;;;;;;29.33;13.83;;;;;;;1.26;100.00;95132.06;4999569;28;20241;-73
2021/01/01 04:26:55;;;;;;;27.63;13.10;;;;;;;1.28;100.00;95124.94;4998066;28;20729;-74
2021/01/01 04:29:21;;;;;;;26.67;12.50;;;;;;;1.30;100.00;95127.41;4998958;28;20217;-74
2021/01/01 04:31:47;;;;;;;36.07;16.50;;;;;;;1.31;100.00;95129.84;4999244;28;20625;-73
2021/01/01 04:34:13;;;;;;;32.43;14.70;;;;;;;1.36;100.00;95126.78;4998928;28;20221;-73
2021/01/01 04:36:39;;;;;;;34.23;14.87;;;;;;;1.35;100.00;95125.16;4997372;28;21296;-74
2021/01/01 04:39:08;;;;;;;32.67;14.27;;;;;;;1.34;100.00;95119.16;4998637;28;20198;-74
2021/01/01 04:41:34;;;;;;;31.40;13.50;;;;;;;1.30;100.00;95112.63;4998991;28;20240;-74
2021/01/01 04:44:01;;;;;;;30.60;14.47;;;;;;;1.34;100.00;95115.75;4998624;28;21021;-74
2021/01/01 04:46:27;;;;;;;27.33;14.03;;;;;;;1.33;100.00;95112.31;4998193;28;20578;-74
2021/01/01 04:48:53;;;;;;;33.33;12.97;;;;;;;1.37;100.00;95113.66;4998938;28;20255;-73
2021/01/01 04:51:19;;;;;;;27.37;13.83;;;;;;;1.36;100.00;95112.06;4998620;28;20202;-73
2021/01/01 04:53:47;;;;;;;32.67;14.33;;;;;;;1.34;100.00;95113.97;4998805;28;20260;-74
2021/01/01 04:56:14;;;;;;;29.67;13.37;;;;;;;1.26;100.00;95103.53;4998183;28;20256;-73
2021/01/01 04:58:40;;;;;;;28.30;13.87;;;;;;;1.26;100.00;95100.09;4998708;28;20209;-73
2021/01/01 05:01:06;;;;;;;32.17;15.03;;;;;;;1.24;100.00;95100.25;4998379;28;20211;-74
2021/01/01 05:03:32;;;;;;;31.87;14.63;;;;;;;1.17;100.00;95111.34;4997868;28;20233;-74
2021/01/01 05:05:58;;;;;;;33.80;15.63;;;;;;;1.13;100.00;95117.81;4997479;28;20210;-74
2021/01/01 05:08:24;;;;;;;36.00;16.13;;;;;;;1.07;100.00;95127.97;4998276;28;20222;-73
2021/01/01 05:10:51;;;;;;;34.80;16.30;;;;;;;1.09;100.00;95128.66;4997470;28;20678;-74
2021/01/01 05:13:19;;;;;;;35.13;15.77;;;;;;;1.13;100.00;95124.78;4998400;28;20218;-74
2021/01/01 05:15:47;;;;;;;35.60;16.47;;;;;;;1.14;100.00;95118.66;4998434;28;20209;-74
2021/01/01 05:18:17;;;;;;;39.00;16.37;;;;;;;1.23;100.00;95122.00;4997090;28;20267;-74
2021/01/01 05:20:43;;;;;;;37.67;16.87;;;;;;;1.30;100.00;95115.22;4997918;28;20206;-73
2021/01/01 05:23:18;;;;;;;33.40;15.63;;;;;;;1.24;100.00;95126.19;4997625;28;20599;-74
2021/01/01 05:25:44;;;;;;;32.17;14.33;;;;;;;1.28;100.00;95127.53;4997673;28;20312;-74
2021/01/01 05:28:13;;;;;;;33.17;15.37;;;;;;;1.31;100.00;95127.25;4997402;28;20770;-73
2021/01/01 05:30:41;;;;;;;34.77;16.50;;;;;;;1.24;100.00;95133.97;4998042;28;20230;-74
2021/01/01 05:33:07;;;;;;;34.60;15.73;;;;;;;1.24;100.00;95128.78;4997671;28;20743;-74
2021/01/01 05:35:34;;;;;;;36.97;15.67;;;;;;;1.20;100.00;95137.84;4997478;28;20213;-73
2021/01/01 05:38:17;;;;;;;33.17;16.23;;;;;;;1.28;100.00;95130.13;4997766;28;20257;-74
2021/01/01 05:40:47;;;;;;;38.90;15.87;;;;;;;1.33;100.00;95133.09;4998057;28;20276;-74
2021/01/01 05:43:17;;;;;;;34.37;16.27;;;;;;;1.35;100.00;95136.34;4997699;28;20225;-73
2021/01/01 05:45:44;;;;;;;34.43;15.17;;;;;;;1.38;100.00;95138.66;4997282;28;20225;-73
2021/01/01 05:48:10;;;;;;;35.07;15.20;;;;;;;1.38;100.00;95143.03;4997506;28;20665;-73
2021/01/01 05:50:37;;;;;;;27.20;14.43;;;;;;;1.30;100.00;95151.56;4997089;28;20205;-73
2021/01/01 05:53:11;;;;;;;33.50;15.87;;;;;;;1.25;100.00;95158.97;4997693;28;20249;-73
2021/01/01 05:55:36;;;;;;;36.53;15.73;;;;;;;1.29;100.00;95159.50;4997052;28;20205;-73
2021/01/01 05:58:02;;;;;;;37.07;16.93;;;;;;;1.33;100.00;95156.44;4997527;28;20206;-73
2021/01/01 06:00:30;;;;;;;34.40;15.67;;;;;;;1.39;100.00;95163.66;4998179;28;20203;-73
2021/01/01 06:03:02;;;;;;;29.80;14.40;;;;;;;1.44;100.00;95155.41;4998098;28;20263;-73
2021/01/01 06:05:29;;;;;;;31.33;14.83;;;;;;;1.41;100.00;95155.69;4996763;28;20783;-73
2021/01/01 06:07:59;;;;;;;32.20;15.30;;;;;;;1.39;100.00;95175.81;4997523;28;20221;-74
2021/01/01 06:10:27;;;;;;;31.97;14.40;;;;;;;1.34;100.00;95162.47;4997609;28;20217;-73
2021/01/01 06:12:56;;;;;;;34.43;15.73;;;;;;;1.35;100.00;95167.50;4996887;28;20316;-73
2021/01/01 06:15:23;;;;;;;36.30;15.67;;;;;;;1.33;100.00;95169.41;4996521;28;20206;-73
2021/01/01 06:17:50;;;;;;;34.30;16.33;;;;;;;1.35;100.00;95171.84;4997388;28;20194;-73
2021/01/01 06:20:19;;;;;;;33.20;14.97;;;;;;;1.33;100.00;95163.41;4997595;28;20217;-73
2021/01/01 06:22:59;;;;;;;37.77;16.33;;;;;;;1.20;100.00;95173.34;5000069;28;20396;-73
2021/01/01 06:25:26;;;;;;;29.53;15.23;;;;;;;1.28;100.00;95176.81;5000973;28;20261;-73
2021/01/01 06:27:52;;;;;;;29.63;14.30;;;;;;;1.31;100.00;95176.53;5001664;28;20202;-73
2021/01/01 06:30:23;;;;;;;35.97;16.47;;;;;;;1.35;100.00;95183.06;5000116;28;20216;-73
2021/01/01 06:32:49;;;;;;;31.40;15.67;;;;;;;1.42;100.00;95188.47;5000753;28;20313;-73
2021/01/01 06:35:19;;;;;;;33.53;16.13;;;;;;;1.41;100.00;95192.88;5000345;28;20198;-73
2021/01/01 06:37:47;;;;;;;32.60;16.57;;;;;;;1.45;100.00;95204.59;5001169;28;20230;-74
2021/01/01 06:40:34;;;;;;;34.00;15.80;;;;;;;1.45;100.00;95196.78;5000419;28;20662;-74
2021/01/01 06:43:01;;;;;;;30.43;13.57;;;;;;;1.47;100.00;95210.44;5001033;28;20634;-74
2021/01/01 06:45:41;;;;;;;36.83;16.40;;;;;;;1.45;100.00;95207.19;4999275;28;20229;-73
2021/01/01 06:48:12;;;;;;;43.93;22.00;;;;;;;1.44;100.00;95208.13;5000677;28;20206;-73
2021/01/01 06:50:40;;;;;;;37.20;19.60;;;;;;;1.50;100.00;95212.75;5000701;28;20261;-73
2021/01/01 06:53:09;;;;;;;42.23;19.90;;;;;;;1.49;100.00;95216.31;5000717;28;20225;-73
2021/01/01 06:55:36;;;;;;;40.87;19.03;;;;;;;1.45;100.00;95214.97;4999763;28;20205;-74
2021/01/01 06:58:03;;;;;;;39.07;17.90;;;;;;;1.43;100.00;95216.06;5000446;28;20210;-73
2021/01/01 07:00:53;;;;;;;36.30;16.83;;;;;;;1.39;100.00;95225.91;5000083;28;20206;-74
2021/01/01 07:03:33;;;;;;;32.93;15.90;;;;;;;1.32;100.00;95230.06;4995204;28;20222;-73
2021/01/01 07:06:34;;;;;;;31.37;14.50;;;;;;;1.40;100.00;95232.75;4998843;28;20222;-73
2021/01/01 07:09:02;;;;;;;31.57;13.90;;;;;;;1.47;100.00;95238.16;4999702;28;20597;-73
2021/01/01 07:11:45;;;;;;;29.97;13.87;;;;;;;1.40;100.00;95235.34;4998922;28;20758;-73
2021/01/01 07:14:13;;;;;;;28.73;12.97;;;;;;;1.35;100.00;95241.91;4999973;28;20736;-73
2021/01/01 07:16:41;;;;;;;32.73;14.33;;;;;;;1.37;100.00;95242.59;4998856;28;20206;-73
2021/01/01 07:19:08;;;;;;;30.70;13.77;;;;;;;1.45;100.00;95240.91;4999885;28;20719;-72
2021/01/01 07:21:35;;;;;;;28.53;13.57;;;;;;;1.46;100.00;95239.94;4998793;28;20707;-73
2021/01/01 07:24:02;;;;;;;27.37;13.27;;;;;;;1.43;100.00;95242.84;4999225;28;21229;-73
2021/01/01 07:26:30;;;;;;;29.37;13.70;;;;;;;1.54;100.00;95241.81;4998639;28;20229;-73
2021/01/01 07:28:58;;;;;;;30.80;13.50;;;;;;;1.50;100.00;95246.50;4999707;28;20217;-73
2021/01/01 07:31:24;;;;;;;29.83;13.50;;;;;;;1.51;100.00;95248.09;4999057;28;20209;-73
2021/01/01 07:33:50;;;;;;;29.80;14.07;;;;;;;1.42;100.00;95248.97;4998921;28;20229;-73
2021/01/01 07:36:17;;;;;;;27.90;13.30;;;;;;;1.44;100.00;95254.00;4997976;28;20233;-73
2021/01/01 07:38:47;;;;;;;30.23;13.70;;;;;;;1.55;100.00;95256.41;4999159;28;20265;-73
2021/01/01 07:41:13;;;;;;;28.13;12.97;;;;;;;1.56;100.00;95251.06;4998925;28;20206;-73
2021/01/01 07:43:40;;;;;;;28.70;14.27;;;;;;;1.64;100.00;95264.13;4999055;28;20641;-73
2021/01/01 07:46:07;;;;;;;27.13;13.27;;;;;;;1.64;100.00;95263.31;4997973;28;20222;-73
2021/01/01 07:48:34;;;;;;;27.53;13.93;;;;;;;1.67;100.00;95270.81;4999019;28;20580;-73
2021/01/01 07:51:02;;;;;;;26.03;13.13;;;;;;;1.70;100.00;95268.75;4999467;28;20252;-73
2021/01/01 07:53:27;;;;;;;24.87;13.53;;;;;;;1.72;100.00;95269.44;4998604;28;20229;-73
2021/01/01 07:55:59;;;;;;;25.97;13.07;;;;;;;1.71;100.00;95278.16;4998455;28;20202;-73
2021/01/01 07:58:27;;;;;;;31.33;13.80;;;;;;;1.83;100.00;95287.38;4998838;28;20210;-73
2021/01/01 08:00:58;;;;;;;27.17;13.77;;;;;;;1.77;100.00;95282.78;4997262;28;20212;-73
2021/01/01 08:03:24;;;;;;;29.70;13.17;;;;;;;1.76;100.00;95283.75;4997736;28;20575;-73
2021/01/01 08:05:51;;;;;;;27.80;13.30;;;;;;;1.80;100.00;95288.47;4998290;28;20222;-73
2021/01/01 08:08:19;;;;;;;30.93;13.60;;;;;;;1.86;100.00;95293.09;4997717;28;20221;-73
2021/01/01 08:10:46;;;;;;;32.13;14.83;;;;;;;1.82;100.00;95289.16;4998392;28;20692;-73
2021/01/01 08:13:14;;;;;;;32.57;15.37;;;;;;;1.88;100.00;95285.16;4998455;28;20253;-73
2021/01/01 08:15:42;;;;;;;32.53;13.70;;;;;;;1.86;100.00;95293.09;4998320;28;20194;-73
2021/01/01 08:18:09;;;;;;;31.43;14.67;;;;;;;1.79;100.00;95296.41;4994986;28;20202;-73
2021/01/01 08:20:35;;;;;;;35.43;16.20;;;;;;;1.93;100.00;95290.72;4997478;28;20237;-73
2021/01/01 08:23:07;;;;;;;28.67;13.63;;;;;;;1.92;100.00;95299.47;4997656;28;20226;-73
2021/01/01 08:25:33;;;;;;;29.17;14.60;;;;;;;1.86;100.00;95297.47;4996954;28;20681;-73
2021/01/01 08:27:59;;;;;;;30.17;13.43;;;;;;;1.85;100.00;95301.03;4996821;28;20214;-73
2021/01/01 08:30:27;;;;;;;32.20;13.73;;;;;;;1.85;100.00;95301.03;4996684;28;20229;-73
2021/01/01 08:32:54;;;;;;;27.33;13.83;;;;;;;2.01;100.00;95298.59;4996408;28;20218;-73
2021/01/01 08:35:21;;;;;;;32.77;14.17;;;;;;;2.04;100.00;95293.91;4996972;28;21099;-73
2021/01/01 08:37:47;;;;;;;30.53;15.00;;;;;;;2.00;100.00;95294.38;4997293;28;20210;-73
2021/01/01 08:40:13;;;;;;;27.37;13.43;;;;;;;1.94;100.00;95290.56;4997265;28;20598;-73
2021/01/01 08:42:40;;;;;;;28.53;14.37;;;;;;;1.91;100.00;95290.06;4996156;28;20808;-73
2021/01/01 08:45:09;;;;;;;28.60;13.97;;;;;;;2.07;100.00;95300.59;4995850;28;20261;-73
2021/01/01 08:47:40;;;;;;;29.17;14.07;;;;;;;2.13;100.00;95298.22;4997879;28;21052;-73
2021/01/01 08:50:18;;;;;;;30.90;15.53;;;;;;;2.23;100.00;95298.13;4996697;28;20203;-73
2021/01/01 08:52:45;;;;;;;26.83;13.37;;;;;;;2.25;100.00;95306.59;4998444;28;20276;-73
2021/01/01 08:55:12;;;;;;;30.70;14.40;;;;;;;2.30;100.00;95309.56;4997323;28;20203;-73
2021/01/01 08:57:38;;;;;;;32.00;15.17;;;;;;;2.30;100.00;95314.78;4997748;28;20202;-73
2021/01/01 09:00:06;;;;;;;31.80;15.13;;;;;;;2.23;100.00;95311.13;4998145;28;20213;-73
2021/01/01 09:02:33;;;;;;;30.70;15.53;;;;;;;2.22;100.00;95312.91;4998059;28;20229;-73
2021/01/01 09:05:00;;;;;;;32.97;15.73;;;;;;;2.23;100.00;95305.91;4996396;28;20261;-73
2021/01/01 09:07:26;;;;;;;35.90;16.27;;;;;;;2.29;100.00;95320.94;4997755;28;20221;-73
2021/01/01 09:09:52;;;;;;;33.00;15.70;;;;;;;2.43;100.00;95310.81;4997699;28;20209;-73
2021/01/01 09:12:20;;;;;;;36.47;16.83;;;;;;;2.37;100.00;95314.03;4997124;28;20226;-73
2021/01/01 09:14:51;;;;;;;34.33;15.73;;;;;;;2.37;100.00;95318.38;4998290;28;20198;-73
2021/01/01 09:17:19;;;;;;;60.90;25.93;;;;;;;2.25;100.00;95330.00;4997613;28;20202;-73
2021/01/01 09:19:45;;;;;;;57.07;24.23;;;;;;;2.29;100.00;95336.53;4997275;28;20199;-73
2021/01/01 09:22:17;;;;;;;49.93;24.00;;;;;;;2.28;100.00;95348.72;4998464;28;20207;-73
2021/01/01 09:24:44;;;;;;;54.80;24.13;;;;;;;2.33;100.00;95348.25;4998364;28;21069;-73
2021/01/01 09:27:10;;;;;;;69.00;28.13;;;;;;;2.36;100.00;95338.38;4997385;28;20202;-73
2021/01/01 09:29:36;;;;;;;61.00;26.13;;;;;;;2.35;100.00;95338.53;4998169;28;20701;-73
2021/01/01 09:32:05;;;;;;;53.27;24.03;;;;;;;2.39;100.00;95337.25;4998284;28;20202;-73
2021/01/01 09:34:31;;;;;;;54.27;23.17;;;;;;;2.40;100.00;95340.50;4998104;28;20241;-73
2021/01/01 09:36:57;;;;;;;49.43;21.93;;;;;;;2.45;100.00;95343.47;4996890;28;20269;-72
2021/01/01 09:39:24;;;;;;;48.83;23.43;;;;;;;2.51;100.00;95345.50;4996625;28;20206;-72
2021/01/01 09:41:50;;;;;;;52.70;22.70;;;;;;;2.52;100.00;95344.53;4998056;28;20198;-73
2021/01/01 09:44:16;;;;;;;54.83;23.23;;;;;;;2.57;100.00;95347.50;4997644;28;20802;-73
2021/01/01 09:46:42;;;;;;;56.40;24.97;;;;;;;2.58;100.00;95354.34;4997419;28;20260;-73
2021/01/01 09:49:09;;;;;;;58.83;24.30;;;;;;;2.62;100.00;95360.03;4996854;28;20206;-73
2021/01/01 09:51:34;;;;;;;54.67;25.07;;;;;;;2.67;100.00;95358.63;4996263;28;20293;-73
2021/01/01 09:54:01;;;;;;;59.10;26.70;;;;;;;2.57;100.00;95357.91;4996151;28;20226;-72
2021/01/01 09:56:35;;;;;;;54.70;25.67;;;;;;;2.52;100.00;95360.13;4998793;28;20202;-73
2021/01/01 09:59:01;;;;;;;52.93;24.33;;;;;;;2.61;100.00;95361.00;5001513;28;20575;-73
2021/01/01 10:01:28;;;;;;;56.17;23.80;;;;;;;2.55;100.00;95359.81;5001585;28;20206;-73
2021/01/01 10:03:54;;;;;;;46.20;21.30;;;;;;;2.48;100.00;95371.81;5000954;28;20222;-73
2021/01/01 10:06:20;;;;;;;41.33;19.27;;;;;;;2.57;100.00;95368.31;5000171;28;20234;-72
2021/01/01 10:08:46;;;;;;;33.00;17.43;;;;;;;2.55;100.00;95366.81;5001388;28;20210;-73
2021/01/01 10:11:12;;;;;;;39.33;17.97;;;;;;;2.57;100.00;95360.50;4999187;28;20207;-73
2021/01/01 10:13:39;;;;;;;44.37;18.40;;;;;;;2.59;100.00;95360.34;5001993;28;20278;-73
2021/01/01 10:16:06;;;;;;;43.50;19.13;;;;;;;2.60;100.00;95359.38;5000288;28;20202;-73
2021/01/01 10:18:32;;;;;;;38.03;19.23;;;;;;;2.54;100.00;95363.38;5001481;28;20206;-73
2021/01/01 10:20:58;;;;;;;39.90;18.73;;;;;;;2.61;100.00;95361.00;5001077;28;20245;-73
2021/01/01 10:23:24;;;;;;;42.73;18.53;;;;;;;2.71;100.00;95369.53;5001264;28;20226;-72
2021/01/01 10:25:50;;;;;;;44.10;20.37;;;;;;;2.73;100.00;95368.41;4998741;28;20760;-72
2021/01/01 10:28:17;;;;;;;42.93;19.63;;;;;;;2.73;100.00;95373.63;5000448;28;20202;-72
2021/01/01 10:30:44;;;;;;;46.03;20.13;;;;;;;2.65;100.00;95370.97;5001054;28;20206;-72
2021/01/01 10:33:10;;;;;;;42.60;19.70;;;;;;;2.74;100.00;95370.06;4995916;28;20719;-72
2021/01/01 10:35:36;;;;;;;48.83;21.50;;;;;;;2.80;100.00;95379.88;4999074;28;20229;-72
2021/01/01 10:38:03;;;;;;;43.23;19.90;;;;;;;2.91;100.00;95371.00;5000227;28;20909;-72
2021/01/01 10:40:29;;;;;;;42.83;20.27;;;;;;;2.90;100.00;95375.38;5000335;28;20243;-72
2021/01/01 10:42:55;;;;;;;44.30;20.33;;;;;;;2.97;100.00;95381.63;4999570;28;20222;-72
2021/01/01 10:45:20;;;;;;;48.53;21.07;;;;;;;2.96;100.00;95374.75;4999838;28;20266;-72
2021/01/01 10:47:48;;;;;;;45.50;20.70;;;;;;;2.86;100.00;95381.03;4999777;28;20285;-72
2021/01/01 10:50:14;;;;;;;43.03;19.90;;;;;;;2.79;100.00;95372.19;5000018;28;20198;-72
2021/01/01 10:52:40;;;;;;;44.37;21.03;;;;;;;2.76;100.00;95373.34;4999878;28;20218;-73
2021/01/01 10:55:07;;;;;;;46.73;20.70;;;;;;;2.76;100.00;95362.94;5000555;28;20244;-72
2021/01/01 10:57:33;;;;;;;47.10;20.37;;;;;;;2.86;100.00;95363.63;4999712;28;20198;-72
2021/01/01 10:59:59;;;;;;;48.63;21.93;;;;;;;2.84;100.00;95362.16;5000948;28;20202;-72
2021/01/01 11:02:25;;;;;;;52.00;22.90;;;;;;;2.87;100.00;95354.88;5000713;28;20284;-73
2021/01/01 11:04:51;;;;;;;49.80;22.93;;;;;;;2.93;100.00;95354.28;5000761;28;20242;-73
2021/01/01 11:07:17;;;;;;;47.87;22.90;;;;;;;3.04;100.00;95351.41;4999761;28;20222;-72
2021/01/01 11:09:43;;;;;;;57.13;23.73;;;;;;;2.98;100.00;95349.44;5000792;28;20198;-73
2021/01/01 11:12:09;;;;;;;49.70;21.63;;;;;;;3.02;100.00;95348.94;5000798;28;20202;-73
2021/01/01 11:14:54;;;;;;;44.60;20.67;;;;;;;3.12;100.00;95348.88;5000349;28;20202;-73
2021/01/01 12:23:28;;;;;;;33.07;14.40;;;;;;;3.07;100.00;95304.28;4989080;28;20222;-73